createdAt,value
2017-02-06T00:00:15.009Z,1.43
2017-02-06T00:01:25.679Z,1.5
2017-02-06T00:02:36.350Z,1.43
2017-02-06T00:03:47.024Z,1.48
2017-02-06T00:04:57.698Z,1.49
2017-02-06T00:06:07.974Z,1.49
2017-02-06T00:07:18.647Z,1.53
2017-02-06T00:08:29.330Z,1.56
2017-02-06T00:09:40.012Z,1.5
2017-02-06T00:10:50.690Z,1.57
2017-02-06T00:12:00.962Z,1.56
2017-02-06T00:13:11.637Z,1.52
2017-02-06T00:14:22.314Z,1.57
2017-02-06T00:15:32.643Z,1.5
2017-02-06T00:16:43.313Z,1.56
2017-02-06T00:17:53.986Z,1.58
2017-02-06T00:19:04.660Z,1.57
2017-02-06T00:20:15.341Z,1.56
2017-02-06T00:21:26.010Z,1.56
2017-02-06T00:22:36.681Z,1.57
2017-02-06T00:23:46.951Z,1.52
2017-02-06T00:24:57.622Z,1.56
2017-02-06T00:26:08.309Z,1.49
2017-02-06T00:27:18.589Z,1.5
2017-02-06T00:28:29.265Z,1.49
2017-02-06T00:29:39.934Z,1.43
2017-02-06T00:30:50.206Z,1.38
2017-02-06T00:32:00.890Z,1.46
2017-02-06T00:33:11.567Z,1.38
2017-02-06T00:34:22.242Z,1.38
2017-02-06T00:35:32.912Z,1.42
2017-02-06T00:36:43.583Z,1.46
2017-02-06T00:37:54.259Z,1.36
2017-02-06T00:39:04.929Z,1.38
2017-02-06T00:40:15.202Z,1.45
2017-02-06T00:41:25.875Z,1.42
2017-02-06T00:42:36.554Z,1.34
2017-02-06T00:43:46.826Z,1.36
2017-02-06T00:44:57.499Z,1.42
2017-02-06T00:46:07.775Z,1.4
2017-02-06T00:47:18.457Z,1.36
2017-02-06T00:48:28.733Z,1.43
2017-02-06T00:49:39.408Z,1.43
2017-02-06T00:50:50.076Z,1.45
2017-02-06T00:52:00.750Z,1.43
2017-02-06T00:53:11.019Z,1.48
2017-02-06T00:54:21.691Z,1.43
2017-02-06T00:55:32.368Z,1.45
2017-02-06T00:56:43.039Z,1.38
2017-02-06T00:57:53.707Z,1.42
2017-02-06T00:59:04.377Z,1.31
2017-02-06T01:00:15.054Z,1.38
2017-02-06T01:01:25.336Z,1.31
2017-02-06T01:02:36.010Z,1.39
2017-02-06T01:03:46.325Z,1.34
2017-02-06T01:04:57.000Z,1.39
2017-02-06T01:06:07.671Z,1.3
2017-02-06T01:07:18.349Z,1.3
2017-02-06T01:08:29.020Z,1.32
2017-02-06T01:09:39.300Z,1.31
2017-02-06T01:10:49.977Z,1.34
2017-02-06T01:12:00.653Z,1.32
2017-02-06T01:13:11.328Z,1.31
2017-02-06T01:14:22.010Z,1.3
2017-02-06T01:15:32.721Z,1.36
2017-02-06T01:16:43.395Z,1.36
2017-02-06T01:17:54.071Z,1.32
2017-02-06T01:19:04.749Z,1.32
2017-02-06T01:20:15.425Z,1.31
2017-02-06T01:21:26.101Z,1.22
2017-02-06T01:22:36.777Z,1.24
2017-02-06T01:23:47.448Z,1.25
2017-02-06T01:24:58.123Z,1.28
2017-02-06T01:26:08.392Z,1.21
2017-02-06T01:27:18.271Z,1.22
2017-02-06T01:28:28.944Z,1.22
2017-02-06T01:29:39.621Z,1.24
2017-02-06T01:30:49.499Z,1.22
2017-02-06T01:32:00.174Z,1.21
2017-02-06T01:33:10.453Z,1.18
2017-02-06T01:34:21.123Z,1.24
2017-02-06T01:35:31.795Z,1.27
2017-02-06T01:36:42.507Z,1.22
2017-02-06T01:37:52.783Z,1.27
2017-02-06T01:39:03.457Z,1.22
2017-02-06T01:40:13.735Z,1.13
2017-02-06T01:41:24.407Z,1.18
2017-02-06T01:42:35.079Z,1.18
2017-02-06T01:43:45.746Z,1.25
2017-02-06T01:44:56.417Z,1.21
2017-02-06T01:46:07.094Z,1.22
2017-02-06T01:47:16.976Z,1.22
2017-02-06T01:48:27.652Z,1.22
2017-02-06T01:49:38.328Z,1.24
2017-02-06T01:50:49.000Z,1.27
2017-02-06T01:51:59.712Z,1.22
2017-02-06T01:53:10.388Z,1.22
2017-02-06T01:54:21.060Z,1.22
2017-02-06T01:55:31.732Z,1.25
2017-02-06T01:56:42.400Z,1.24
2017-02-06T01:57:52.675Z,1.22
2017-02-06T01:59:03.347Z,1.21
2017-02-06T02:00:14.018Z,1.32
2017-02-06T02:01:24.293Z,1.34
2017-02-06T02:02:34.960Z,1.31
2017-02-06T02:03:45.633Z,1.32
2017-02-06T02:04:56.346Z,1.39
2017-02-06T02:06:06.631Z,1.34
2017-02-06T02:07:16.901Z,1.38
2017-02-06T02:08:27.573Z,1.36
2017-02-06T02:09:38.244Z,1.34
2017-02-06T02:10:48.919Z,1.36
2017-02-06T02:11:59.594Z,1.36
2017-02-06T02:13:10.263Z,1.31
2017-02-06T02:14:20.933Z,1.31
2017-02-06T02:15:31.203Z,1.38
2017-02-06T02:16:41.874Z,1.34
2017-02-06T02:17:52.540Z,1.36
2017-02-06T02:19:03.213Z,1.32
2017-02-06T02:20:13.885Z,1.34
2017-02-06T02:21:24.563Z,1.39
2017-02-06T02:22:35.234Z,1.39
2017-02-06T02:23:45.907Z,1.31
2017-02-06T02:24:56.584Z,1.34
2017-02-06T02:26:07.257Z,1.32
2017-02-06T02:27:17.926Z,1.39
2017-02-06T02:28:28.602Z,1.36
2017-02-06T02:29:39.276Z,1.38
2017-02-06T02:30:49.947Z,1.38
2017-02-06T02:32:00.619Z,1.43
2017-02-06T02:33:11.292Z,1.38
2017-02-06T02:34:21.969Z,1.36
2017-02-06T02:35:32.645Z,1.42
2017-02-06T02:36:43.312Z,1.43
2017-02-06T02:37:53.591Z,1.46
2017-02-06T02:39:04.266Z,1.49
2017-02-06T02:40:14.936Z,1.36
2017-02-06T02:41:25.610Z,1.49
2017-02-06T02:42:36.283Z,1.46
2017-02-06T02:43:46.955Z,1.49
2017-02-06T02:44:57.626Z,1.46
2017-02-06T02:46:08.300Z,1.43
2017-02-06T02:47:19.009Z,1.42
2017-02-06T02:48:29.677Z,1.46
2017-02-06T02:49:39.947Z,1.34
2017-02-06T02:50:50.225Z,1.4
2017-02-06T02:52:00.897Z,1.34
2017-02-06T02:53:11.173Z,1.36
2017-02-06T02:54:21.886Z,1.39
2017-02-06T02:55:32.160Z,1.43
2017-02-06T02:56:42.835Z,1.39
2017-02-06T02:57:53.511Z,1.32
2017-02-06T02:59:04.192Z,1.36
2017-02-06T03:00:14.886Z,1.38
2017-02-06T03:01:25.559Z,1.39
2017-02-06T03:02:36.230Z,1.34
2017-02-06T03:03:46.505Z,1.42
2017-02-06T03:04:57.184Z,1.42
2017-02-06T03:06:07.856Z,1.49
2017-02-06T03:07:18.527Z,1.34
2017-02-06T03:08:28.800Z,1.38
2017-02-06T03:09:39.473Z,1.32
2017-02-06T03:10:50.148Z,1.36
2017-02-06T03:12:00.821Z,1.39
2017-02-06T03:13:11.094Z,1.31
2017-02-06T03:14:21.370Z,1.38
2017-02-06T03:15:31.647Z,1.32
2017-02-06T03:16:42.313Z,1.34
2017-02-06T03:17:52.987Z,1.36
2017-02-06T03:19:03.660Z,1.32
2017-02-06T03:20:14.395Z,1.32
2017-02-06T03:21:25.068Z,1.36
2017-02-06T03:22:35.743Z,1.31
2017-02-06T03:23:46.414Z,1.32
2017-02-06T03:24:57.082Z,1.24
2017-02-06T03:26:07.752Z,1.32
2017-02-06T03:27:18.027Z,1.31
2017-02-06T03:28:28.696Z,1.32
2017-02-06T03:29:39.370Z,1.25
2017-02-06T03:30:49.648Z,1.31
2017-02-06T03:32:00.320Z,1.31
2017-02-06T03:33:10.597Z,1.32
2017-02-06T03:34:21.277Z,1.2
2017-02-06T03:35:31.552Z,1.34
2017-02-06T03:36:42.225Z,1.21
2017-02-06T03:37:52.896Z,1.24
2017-02-06T03:39:03.566Z,1.22
2017-02-06T03:40:14.243Z,1.25
2017-02-06T03:41:24.910Z,1.28
2017-02-06T03:42:35.583Z,1.22
2017-02-06T03:43:46.260Z,1.28
2017-02-06T03:44:56.928Z,1.2
2017-02-06T03:46:07.603Z,1.22
2017-02-06T03:47:17.482Z,1.22
2017-02-06T03:48:28.150Z,1.21
2017-02-06T03:49:38.819Z,1.2
2017-02-06T03:50:49.489Z,1.18
2017-02-06T03:52:00.162Z,1.21
2017-02-06T03:53:10.835Z,1.22
2017-02-06T03:54:21.511Z,1.25
2017-02-06T03:55:31.788Z,1.28
2017-02-06T03:56:42.470Z,1.24
2017-02-06T03:57:53.138Z,1.27
2017-02-06T03:59:03.417Z,1.3
2017-02-06T04:00:13.697Z,1.32
2017-02-06T04:01:23.987Z,1.38
2017-02-06T04:02:34.267Z,1.34
2017-02-06T04:03:44.939Z,1.36
2017-02-06T04:04:55.611Z,1.32
2017-02-06T04:06:06.287Z,1.4
2017-02-06T04:07:16.953Z,1.32
2017-02-06T04:08:27.634Z,1.38
2017-02-06T04:09:38.308Z,1.43
2017-02-06T04:10:48.980Z,1.32
2017-02-06T04:11:59.652Z,1.38
2017-02-06T04:13:10.327Z,1.3
2017-02-06T04:14:20.646Z,1.34
2017-02-06T04:15:31.328Z,1.32
2017-02-06T04:16:42.001Z,1.39
2017-02-06T04:17:52.281Z,1.34
2017-02-06T04:19:02.955Z,1.32
2017-02-06T04:20:13.232Z,1.42
2017-02-06T04:21:23.902Z,1.38
2017-02-06T04:22:34.575Z,1.38
2017-02-06T04:23:45.248Z,1.36
2017-02-06T04:24:55.920Z,1.34
2017-02-06T04:26:06.613Z,1.32
2017-02-06T04:27:17.284Z,1.32
2017-02-06T04:28:27.954Z,1.32
2017-02-06T04:29:38.629Z,1.34
2017-02-06T04:30:48.904Z,1.36
2017-02-06T04:31:59.628Z,1.32
2017-02-06T04:33:09.899Z,1.34
2017-02-06T04:34:20.573Z,1.32
2017-02-06T04:35:31.242Z,1.36
2017-02-06T04:36:41.916Z,1.42
2017-02-06T04:37:52.584Z,1.32
2017-02-06T04:39:03.303Z,1.28
2017-02-06T04:40:13.976Z,1.3
2017-02-06T04:41:24.650Z,1.3
2017-02-06T04:42:35.321Z,1.3
2017-02-06T04:43:45.994Z,1.28
2017-02-06T04:44:56.666Z,1.4
2017-02-06T04:46:07.342Z,1.3
2017-02-06T04:47:18.025Z,1.38
2017-02-06T04:48:28.692Z,1.38
2017-02-06T04:49:39.367Z,1.3
2017-02-06T04:50:49.641Z,1.32
2017-02-06T04:52:00.309Z,1.32
2017-02-06T04:53:10.991Z,1.31
2017-02-06T04:54:21.662Z,1.28
2017-02-06T04:55:32.330Z,1.28
2017-02-06T04:56:43.000Z,1.28
2017-02-06T04:57:53.679Z,1.32
2017-02-06T04:59:04.353Z,1.28
2017-02-06T05:00:14.628Z,1.31
2017-02-06T05:01:25.296Z,1.24
2017-02-06T05:02:35.967Z,1.28
2017-02-06T05:03:46.633Z,1.24
2017-02-06T05:04:57.311Z,1.24
2017-02-06T05:06:07.586Z,1.27
2017-02-06T05:07:17.862Z,1.22
2017-02-06T05:08:28.533Z,1.24
2017-02-06T05:09:39.205Z,1.16
2017-02-06T05:10:49.875Z,1.22
2017-02-06T05:12:00.544Z,1.24
2017-02-06T05:13:11.220Z,1.22
2017-02-06T05:14:21.894Z,1.21
2017-02-06T05:15:31.770Z,1.18
2017-02-06T05:16:42.439Z,1.24
2017-02-06T05:17:53.111Z,1.27
2017-02-06T05:19:03.786Z,1.27
2017-02-06T05:20:14.065Z,1.22
2017-02-06T05:21:24.740Z,1.25
2017-02-06T05:22:35.417Z,1.18
2017-02-06T05:23:46.089Z,1.25
2017-02-06T05:24:56.760Z,1.21
2017-02-06T05:26:07.431Z,1.18
2017-02-06T05:27:17.710Z,1.2
2017-02-06T05:28:26.798Z,1.21
2017-02-06T05:29:37.490Z,1.21
2017-02-06T05:30:48.162Z,1.22
2017-02-06T05:31:58.833Z,1.22
2017-02-06T05:33:09.513Z,1.2
2017-02-06T05:34:20.184Z,1.21
2017-02-06T05:35:30.467Z,1.16
2017-02-06T05:36:41.145Z,1.1
2017-02-06T05:37:51.422Z,1.14
2017-02-06T05:39:02.100Z,1.1
2017-02-06T05:40:12.382Z,1.13
2017-02-06T05:41:23.056Z,1.12
2017-02-06T05:42:33.739Z,1.12
2017-02-06T05:43:44.409Z,1.1
2017-02-06T05:44:54.686Z,1.07
2017-02-06T05:46:05.364Z,1.09
2017-02-06T05:47:16.037Z,1.1
2017-02-06T05:48:26.310Z,0.99
2017-02-06T05:49:36.980Z,1.09
2017-02-06T05:50:47.259Z,1.12
2017-02-06T05:51:57.929Z,1.07
2017-02-06T05:53:08.606Z,1.07
2017-02-06T05:54:19.277Z,1.12
2017-02-06T05:55:29.548Z,1.07
2017-02-06T05:56:40.221Z,1.12
2017-02-06T05:57:50.896Z,1.09
2017-02-06T05:59:01.564Z,0.94
2017-02-06T06:00:12.231Z,1.06
2017-02-06T06:01:22.901Z,1
2017-02-06T06:02:33.575Z,1.02
2017-02-06T06:03:44.248Z,0.89
2017-02-06T06:04:54.527Z,1.02
2017-02-06T06:06:05.202Z,0.92
2017-02-06T06:07:15.876Z,0.91
2017-02-06T06:08:26.551Z,0.91
2017-02-06T06:09:37.225Z,0.86
2017-02-06T06:10:47.109Z,0.81
2017-02-06T06:11:57.784Z,0.76
2017-02-06T06:13:08.462Z,0.84
2017-02-06T06:14:19.135Z,0.81
2017-02-06T06:15:29.807Z,0.82
2017-02-06T06:16:40.480Z,0.84
2017-02-06T06:17:51.153Z,0.81
2017-02-06T06:19:01.872Z,0.78
2017-02-06T06:20:12.145Z,0.84
2017-02-06T06:21:22.811Z,0.77
2017-02-06T06:22:33.483Z,0.78
2017-02-06T06:23:44.252Z,0.74
2017-02-06T06:24:54.925Z,0.71
2017-02-06T06:26:05.599Z,0.73
2017-02-06T06:27:15.877Z,0.77
2017-02-06T06:28:26.549Z,0.7
2017-02-06T06:29:37.217Z,0.67
2017-02-06T06:30:47.887Z,0.76
2017-02-06T06:31:58.562Z,0.73
2017-02-06T06:33:09.237Z,0.73
2017-02-06T06:34:19.960Z,0.67
2017-02-06T06:35:30.628Z,0.7
2017-02-06T06:36:40.937Z,0.63
2017-02-06T06:37:51.605Z,0.7
2017-02-06T06:39:02.290Z,0.7
2017-02-06T06:40:12.564Z,0.64
2017-02-06T06:41:23.237Z,0.66
2017-02-06T06:42:33.906Z,0.74
2017-02-06T06:43:44.579Z,0.73
2017-02-06T06:44:55.257Z,0.67
2017-02-06T06:46:05.531Z,0.7
2017-02-06T06:47:15.410Z,0.67
2017-02-06T06:48:26.084Z,0.58
2017-02-06T06:49:36.752Z,0.64
2017-02-06T06:50:47.424Z,0.63
2017-02-06T06:51:58.098Z,0.64
2017-02-06T06:53:08.376Z,0.64
2017-02-06T06:54:19.047Z,0.66
2017-02-06T06:55:29.334Z,0.61
2017-02-06T06:56:40.003Z,0.63
2017-02-06T06:57:50.672Z,0.58
2017-02-06T06:59:01.346Z,0.63
2017-02-06T07:00:11.624Z,0.63
2017-02-06T07:01:22.297Z,0.61
2017-02-06T07:02:32.965Z,0.67
2017-02-06T07:03:43.632Z,0.59
2017-02-06T07:04:54.306Z,0.49
2017-02-06T07:06:04.978Z,0.56
2017-02-06T07:07:15.652Z,0.45
2017-02-06T07:08:26.326Z,0.51
2017-02-06T07:09:36.995Z,0.49
2017-02-06T07:10:47.663Z,0.59
2017-02-06T07:11:58.332Z,0.59
2017-02-06T07:13:09.002Z,0.61
2017-02-06T07:14:19.675Z,0.59
2017-02-06T07:15:30.395Z,0.52
2017-02-06T07:16:41.063Z,0.51
2017-02-06T07:17:51.732Z,0.49
2017-02-06T07:19:02.412Z,0.45
2017-02-06T07:20:12.682Z,0.52
2017-02-06T07:21:23.358Z,0.52
2017-02-06T07:22:33.637Z,0.47
2017-02-06T07:23:44.313Z,0.48
2017-02-06T07:24:54.981Z,0.52
2017-02-06T07:26:05.651Z,0.47
2017-02-06T07:27:15.924Z,0.51
2017-02-06T07:28:26.199Z,0.49
2017-02-06T07:29:36.474Z,0.56
2017-02-06T07:30:47.143Z,0.56
2017-02-06T07:31:57.822Z,0.61
2017-02-06T07:33:08.501Z,0.59
2017-02-06T07:34:19.174Z,0.63
2017-02-06T07:35:29.849Z,0.61
2017-02-06T07:36:40.527Z,0.66
2017-02-06T07:37:51.201Z,0.59
2017-02-06T07:39:01.878Z,0.59
2017-02-06T07:40:12.462Z,0.63
2017-02-06T07:41:23.173Z,0.56
2017-02-06T07:42:33.449Z,0.58
2017-02-06T07:43:44.165Z,0.52
2017-02-06T07:44:54.439Z,0.71
2017-02-06T07:46:05.115Z,0.64
2017-02-06T07:47:15.382Z,0.66
2017-02-06T07:48:26.058Z,0.66
2017-02-06T07:49:36.727Z,0.67
2017-02-06T07:50:47.407Z,0.7
2017-02-06T07:51:58.077Z,0.77
2017-02-06T07:53:08.746Z,0.76
2017-02-06T07:54:19.421Z,0.81
2017-02-06T07:55:30.092Z,0.77
2017-02-06T07:56:40.765Z,0.81
2017-02-06T07:57:51.041Z,0.84
2017-02-06T07:59:01.713Z,0.94
2017-02-06T08:00:12.377Z,0.84
2017-02-06T08:01:23.051Z,0.88
2017-02-06T08:02:33.320Z,0.85
2017-02-06T08:03:43.992Z,0.92
2017-02-06T08:04:54.669Z,0.91
2017-02-06T08:06:05.338Z,0.78
2017-02-06T08:07:16.009Z,0.85
2017-02-06T08:08:26.722Z,0.94
2017-02-06T08:09:37.400Z,0.94
2017-02-06T08:10:47.684Z,1
2017-02-06T08:11:58.355Z,0.95
2017-02-06T08:13:08.631Z,1
2017-02-06T08:14:19.299Z,0.94
2017-02-06T08:15:30.325Z,0.92
2017-02-06T08:16:40.992Z,1
2017-02-06T08:17:51.663Z,0.99
2017-02-06T08:19:02.334Z,0.99
2017-02-06T08:20:12.219Z,1
2017-02-06T08:21:22.893Z,0.95
2017-02-06T08:22:33.168Z,1.04
2017-02-06T08:23:43.839Z,1
2017-02-06T08:24:54.512Z,1.02
2017-02-06T08:26:05.183Z,1.12
2017-02-06T08:27:15.849Z,1.06
2017-02-06T08:28:26.127Z,1.09
2017-02-06T08:29:36.397Z,1.04
2017-02-06T08:30:47.074Z,1.07
2017-02-06T08:31:57.744Z,1.21
2017-02-06T08:33:08.421Z,1.2
2017-02-06T08:34:18.299Z,1.28
2017-02-06T08:35:28.967Z,1.22
2017-02-06T08:36:39.643Z,1.25
2017-02-06T08:37:50.317Z,1.21
2017-02-06T08:39:00.985Z,1.16
2017-02-06T08:40:11.664Z,1.16
2017-02-06T08:41:22.337Z,1.22
2017-02-06T08:42:32.617Z,1.21
2017-02-06T08:43:43.292Z,1.2
2017-02-06T08:44:53.966Z,1
2017-02-06T08:46:04.634Z,1.07
2017-02-06T08:47:15.310Z,1.03
2017-02-06T08:48:25.982Z,1.06
2017-02-06T08:49:36.258Z,0.92
2017-02-06T08:50:46.937Z,0.94
2017-02-06T08:51:57.613Z,1.03
2017-02-06T08:53:08.289Z,0.99
2017-02-06T08:54:18.965Z,0.94
2017-02-06T08:55:29.634Z,0.95
2017-02-06T08:56:39.912Z,0.94
2017-02-06T08:57:50.583Z,0.94
2017-02-06T08:59:01.258Z,0.92
2017-02-06T09:00:11.537Z,0.96
2017-02-06T09:01:22.209Z,0.92
2017-02-06T09:02:32.879Z,0.99
2017-02-06T09:03:43.554Z,0.94
2017-02-06T09:04:54.227Z,0.86
2017-02-06T09:06:04.906Z,0.94
2017-02-06T09:07:15.576Z,0.89
2017-02-06T09:08:26.244Z,0.85
2017-02-06T09:09:36.914Z,0.94
2017-02-06T09:10:47.190Z,0.91
2017-02-06T09:11:57.864Z,0.88
2017-02-06T09:13:08.544Z,0.94
2017-02-06T09:14:19.266Z,0.92
2017-02-06T09:15:29.938Z,0.92
2017-02-06T09:16:40.608Z,0.95
2017-02-06T09:17:51.283Z,0.94
2017-02-06T09:19:01.963Z,0.95
2017-02-06T09:20:12.637Z,1
2017-02-06T09:21:23.309Z,0.99
2017-02-06T09:22:33.984Z,0.95
2017-02-06T09:23:44.261Z,1.04
2017-02-06T09:24:54.935Z,1.07
2017-02-06T09:26:05.208Z,1.03
2017-02-06T09:27:15.489Z,1
2017-02-06T09:28:26.158Z,1.06
2017-02-06T09:29:36.435Z,1.09
2017-02-06T09:30:47.107Z,1.06
2017-02-06T09:31:57.779Z,1.07
2017-02-06T09:33:08.453Z,1.12
2017-02-06T09:34:19.122Z,1.07
2017-02-06T09:35:29.795Z,1.07
2017-02-06T09:36:40.074Z,1.12
2017-02-06T09:37:50.750Z,1.09
2017-02-06T09:39:02.006Z,1.12
2017-02-06T09:40:12.507Z,1.09
2017-02-06T09:41:23.182Z,1.14
2017-02-06T09:42:33.457Z,1.12
2017-02-06T09:43:44.128Z,1.1
2017-02-06T09:44:54.801Z,1.09
2017-02-06T09:46:05.520Z,1.14
2017-02-06T09:47:15.794Z,1.13
2017-02-06T09:48:26.472Z,1.02
2017-02-06T09:49:36.746Z,1.07
2017-02-06T09:50:47.421Z,1.12
2017-02-06T09:51:58.089Z,1.09
2017-02-06T09:53:08.763Z,1.1
2017-02-06T09:54:19.439Z,1.07
2017-02-06T09:55:30.111Z,1.16
2017-02-06T09:56:40.780Z,1.07
2017-02-06T09:57:51.452Z,1.16
2017-02-06T09:59:02.127Z,1.1
2017-02-06T10:00:12.411Z,1.13
2017-02-06T10:01:23.080Z,1.14
2017-02-06T10:02:33.753Z,1.09
2017-02-06T10:03:44.420Z,1.1
2017-02-06T10:04:55.090Z,1.12
2017-02-06T10:06:05.758Z,1.09
2017-02-06T10:07:15.636Z,1.14
2017-02-06T10:08:26.312Z,1.1
2017-02-06T10:09:36.987Z,1.12
2017-02-06T10:10:47.667Z,1.12
2017-02-06T10:11:58.339Z,1.16
2017-02-06T10:13:09.015Z,1.16
2017-02-06T10:14:19.687Z,1.18
2017-02-06T10:15:30.362Z,1.14
2017-02-06T10:16:39.848Z,1.1
2017-02-06T10:17:50.522Z,1.2
2017-02-06T10:19:00.795Z,1.16
2017-02-06T10:20:10.674Z,1.2
2017-02-06T10:21:21.351Z,1.24
2017-02-06T10:22:32.025Z,1.1
2017-02-06T10:23:42.302Z,1.2
2017-02-06T10:24:52.972Z,1.2
2017-02-06T10:26:03.246Z,1.2
2017-02-06T10:27:13.525Z,1.2
2017-02-06T10:28:24.198Z,1.24
2017-02-06T10:29:34.878Z,1.16
2017-02-06T10:30:45.168Z,1.22
2017-02-06T10:31:55.442Z,1.12
2017-02-06T10:33:06.111Z,1.13
2017-02-06T10:34:16.780Z,1.13
2017-02-06T10:35:27.454Z,1.13
2017-02-06T10:36:38.127Z,1.27
2017-02-06T10:37:48.803Z,1.21
2017-02-06T10:38:59.476Z,1.27
2017-02-06T10:40:10.152Z,1.18
2017-02-06T10:41:20.430Z,1.18
2017-02-06T10:42:31.099Z,1.22
2017-02-06T10:43:41.777Z,1.12
2017-02-06T10:44:52.451Z,1.21
2017-02-06T10:46:02.732Z,1.14
2017-02-06T10:47:13.404Z,1.24
2017-02-06T10:48:24.077Z,1.22
2017-02-06T10:49:34.352Z,1.25
2017-02-06T10:50:45.026Z,1.22
2017-02-06T10:51:55.699Z,1.24
2017-02-06T10:53:06.372Z,1.28
2017-02-06T10:54:17.081Z,1.32
2017-02-06T10:55:27.765Z,1.31
2017-02-06T10:56:38.439Z,1.39
2017-02-06T10:57:49.109Z,1.34
2017-02-06T10:58:59.781Z,1.34
2017-02-06T11:00:09.665Z,1.34
2017-02-06T11:01:19.544Z,1.31
2017-02-06T11:02:30.224Z,1.32
2017-02-06T11:03:40.893Z,1.21
2017-02-06T11:04:51.176Z,1.34
2017-02-06T11:06:01.854Z,1.24
2017-02-06T11:07:11.731Z,1.21
2017-02-06T11:08:22.013Z,1.27
2017-02-06T11:09:32.689Z,1.31
2017-02-06T11:10:43.386Z,1.31
2017-02-06T11:11:54.075Z,1.22
2017-02-06T11:13:04.747Z,1.24
2017-02-06T11:14:14.626Z,1.34
2017-02-06T11:15:25.298Z,1.3
2017-02-06T11:16:35.970Z,1.28
2017-02-06T11:17:46.642Z,1.24
2017-02-06T11:18:57.313Z,1.18
2017-02-06T11:20:07.992Z,1.21
2017-02-06T11:21:18.268Z,1.22
2017-02-06T11:22:28.943Z,1.12
2017-02-06T11:23:39.704Z,1
2017-02-06T11:24:50.377Z,1.09
2017-02-06T11:26:01.051Z,1.02
2017-02-06T11:27:11.726Z,0.95
2017-02-06T11:28:22.397Z,0.86
2017-02-06T11:29:32.670Z,0.88
2017-02-06T11:30:43.345Z,0.81
2017-02-06T11:31:54.012Z,0.76
2017-02-06T11:33:04.683Z,0.67
2017-02-06T11:34:15.358Z,0.67
2017-02-06T11:35:26.030Z,0.59
2017-02-06T11:36:36.702Z,0.59
2017-02-06T11:37:46.580Z,0.61
2017-02-06T11:38:57.253Z,0.56
2017-02-06T11:40:07.535Z,0.51
2017-02-06T11:41:18.210Z,0.63
2017-02-06T11:42:28.887Z,0.49
2017-02-06T11:43:39.561Z,0.58
2017-02-06T11:44:49.438Z,0.47
2017-02-06T11:46:00.108Z,0.64
2017-02-06T11:47:10.787Z,0.51
2017-02-06T11:48:21.457Z,0.56
2017-02-06T11:49:32.131Z,0.51
2017-02-06T11:50:42.799Z,0.55
2017-02-06T11:51:53.474Z,0.48
2017-02-06T11:53:03.744Z,0.51
2017-02-06T11:54:14.415Z,0.59
2017-02-06T11:55:25.088Z,0.51
2017-02-06T11:56:35.754Z,0.51
2017-02-06T11:57:45.636Z,0.51
2017-02-06T11:58:56.313Z,0.49
2017-02-06T12:00:06.590Z,0.51
2017-02-06T12:01:16.465Z,0.49
2017-02-06T12:02:26.745Z,0.49
2017-02-06T12:03:37.413Z,0.52
2017-02-06T12:04:47.688Z,0.51
2017-02-06T12:05:58.362Z,0.63
2017-02-06T12:07:09.041Z,0.61
2017-02-06T12:08:19.323Z,0.61
2017-02-06T12:09:30.739Z,0.61
2017-02-06T12:10:41.414Z,0.56
2017-02-06T12:11:52.086Z,0.66
2017-02-06T12:13:02.829Z,0.63
2017-02-06T12:14:13.588Z,0.68
2017-02-06T12:15:23.890Z,0.7
2017-02-06T12:16:34.571Z,0.68
2017-02-06T12:17:44.891Z,0.81
2017-02-06T12:18:55.569Z,0.74
2017-02-06T12:20:06.238Z,0.78
2017-02-06T12:21:16.911Z,0.78
2017-02-06T12:22:27.584Z,0.85
2017-02-06T12:23:38.259Z,0.85
2017-02-06T12:24:48.932Z,0.86
2017-02-06T12:25:59.606Z,0.91
2017-02-06T12:27:09.487Z,0.96
2017-02-06T12:28:20.162Z,0.95
2017-02-06T12:29:30.434Z,0.99
2017-02-06T12:30:41.103Z,0.94
2017-02-06T12:31:51.772Z,0.94
2017-02-06T12:33:02.444Z,0.99
2017-02-06T12:34:12.717Z,1
2017-02-06T12:35:23.386Z,1
2017-02-06T12:36:34.065Z,1.06
2017-02-06T12:37:44.334Z,1.04
2017-02-06T12:38:55.011Z,1.06
2017-02-06T12:40:05.687Z,1.12
2017-02-06T12:41:16.366Z,1.1
2017-02-06T12:42:27.035Z,1.13
2017-02-06T12:43:37.744Z,1.13
2017-02-06T12:44:48.418Z,1.16
2017-02-06T12:45:59.086Z,1.06
2017-02-06T12:47:09.366Z,1.14
2017-02-06T12:48:20.049Z,1.06
2017-02-06T12:49:30.727Z,1.12
2017-02-06T12:50:41.401Z,1.03
2017-02-06T12:51:52.073Z,0.92
2017-02-06T12:53:02.745Z,0.95
2017-02-06T12:54:13.415Z,0.88
2017-02-06T12:55:24.090Z,0.86
2017-02-06T12:56:34.368Z,0.74
2017-02-06T12:57:45.045Z,0.81
2017-02-06T12:58:55.718Z,0.82
2017-02-06T13:00:06.388Z,0.82
2017-02-06T13:01:16.668Z,0.77
2017-02-06T13:02:27.336Z,0.81
2017-02-06T13:03:38.015Z,0.76
2017-02-06T13:04:48.334Z,0.78
2017-02-06T13:05:58.611Z,0.82
2017-02-06T13:07:08.883Z,0.68
2017-02-06T13:08:19.553Z,0.7
2017-02-06T13:09:30.236Z,0.59
2017-02-06T13:10:40.907Z,0.76
2017-02-06T13:11:51.571Z,0.67
2017-02-06T13:13:01.852Z,0.68
2017-02-06T13:14:12.533Z,0.68
2017-02-06T13:15:23.205Z,0.7
2017-02-06T13:16:33.872Z,0.68
2017-02-06T13:17:44.546Z,0.76
2017-02-06T13:18:54.823Z,0.71
2017-02-06T13:20:05.501Z,0.84
2017-02-06T13:21:16.179Z,0.85
2017-02-06T13:22:26.856Z,0.85
2017-02-06T13:23:37.135Z,0.82
2017-02-06T13:24:47.808Z,0.95
2017-02-06T13:25:58.482Z,0.99
2017-02-06T13:27:09.152Z,1.02
2017-02-06T13:28:19.427Z,0.99
2017-02-06T13:29:30.099Z,1.07
2017-02-06T13:30:40.773Z,1
2017-02-06T13:31:51.464Z,0.94
2017-02-06T13:33:02.137Z,1.02
2017-02-06T13:34:12.017Z,1.02
2017-02-06T13:35:22.690Z,1.09
2017-02-06T13:36:33.371Z,0.99
2017-02-06T13:37:44.044Z,1.02
2017-02-06T13:38:54.718Z,1.03
2017-02-06T13:40:05.395Z,0.95
2017-02-06T13:41:15.669Z,0.96
2017-02-06T13:42:26.342Z,1.03
2017-02-06T13:43:37.010Z,0.94
2017-02-06T13:44:47.684Z,0.95
2017-02-06T13:45:58.360Z,0.89
2017-02-06T13:47:09.074Z,0.99
2017-02-06T13:48:19.750Z,0.91
2017-02-06T13:49:30.034Z,0.94
2017-02-06T13:50:40.711Z,0.92
2017-02-06T13:51:50.590Z,0.86
2017-02-06T13:53:01.269Z,0.84
2017-02-06T13:54:11.939Z,0.68
2017-02-06T13:55:22.605Z,0.73
2017-02-06T13:56:32.879Z,0.74
2017-02-06T13:57:43.160Z,0.61
2017-02-06T13:58:53.435Z,0.55
2017-02-06T14:00:04.113Z,0.48
2017-02-06T14:01:14.830Z,0.39
2017-02-06T14:02:25.500Z,0.33
2017-02-06T14:03:36.174Z,0.3
2017-02-06T14:04:46.846Z,0.36
2017-02-06T14:05:57.519Z,0.29
2017-02-06T14:07:08.218Z,0.18
2017-02-06T14:08:18.890Z,0.06
2017-02-06T14:09:29.163Z,-0.02
2017-02-06T14:10:39.831Z,0.08
2017-02-06T14:11:50.498Z,0
2017-02-06T14:13:01.172Z,-0.15
2017-02-06T14:14:11.442Z,-0.1
2017-02-06T14:15:22.121Z,-0.2
2017-02-06T14:16:32.795Z,-0.21
2017-02-06T14:17:43.470Z,-0.3
2017-02-06T14:18:54.141Z,-0.45
2017-02-06T14:20:04.809Z,-0.46
2017-02-06T14:21:15.083Z,-0.54
2017-02-06T14:22:25.755Z,-0.57
2017-02-06T14:23:36.427Z,-0.6
2017-02-06T14:24:47.097Z,-0.56
2017-02-06T14:25:57.763Z,-0.66
2017-02-06T14:27:08.438Z,-0.66
2017-02-06T14:28:18.708Z,-0.67
2017-02-06T14:29:29.377Z,-0.62
2017-02-06T14:30:40.047Z,-0.7
2017-02-06T14:31:50.714Z,-0.75
2017-02-06T14:33:01.385Z,-0.74
2017-02-06T14:34:12.059Z,-0.72
2017-02-06T14:35:22.736Z,-0.77
2017-02-06T14:36:33.406Z,-0.78
2017-02-06T14:37:44.087Z,-0.74
2017-02-06T14:38:54.760Z,-0.69
2017-02-06T14:40:05.032Z,-0.72
2017-02-06T14:41:15.707Z,-0.72
2017-02-06T14:42:26.385Z,-0.74
2017-02-06T14:43:37.053Z,-0.74
2017-02-06T14:44:47.727Z,-0.78
2017-02-06T14:45:58.439Z,-0.72
2017-02-06T14:47:09.116Z,-0.69
2017-02-06T14:48:19.784Z,-0.57
2017-02-06T14:49:30.468Z,-0.6
2017-02-06T14:50:41.142Z,-0.54
2017-02-06T14:51:51.813Z,-0.51
2017-02-06T14:53:02.487Z,-0.57
2017-02-06T14:54:13.159Z,-0.53
2017-02-06T14:55:23.829Z,-0.56
2017-02-06T14:56:34.492Z,-0.48
2017-02-06T14:57:45.168Z,-0.59
2017-02-06T15:00:04.381Z,-0.57
2017-02-06T15:01:14.670Z,-0.66
2017-02-06T15:02:25.349Z,-0.63
2017-02-06T15:03:36.031Z,-0.64
2017-02-06T15:04:46.699Z,-0.72
2017-02-06T15:05:57.376Z,-0.77
2017-02-06T15:07:08.044Z,-0.67
2017-02-06T15:08:18.317Z,-0.66
2017-02-06T15:09:28.991Z,-0.69
2017-02-06T15:10:39.269Z,-0.67
2017-02-06T15:11:49.541Z,-0.69
2017-02-06T15:13:00.122Z,-0.67
2017-02-06T15:14:10.794Z,-0.7
2017-02-06T15:15:21.463Z,-0.75
2017-02-06T15:16:32.142Z,-0.82
2017-02-06T15:17:42.819Z,-0.93
2017-02-06T15:18:53.584Z,-0.85
2017-02-06T15:20:04.249Z,-0.97
2017-02-06T15:21:14.927Z,-0.97
2017-02-06T15:22:25.602Z,-0.97
2017-02-06T15:23:36.270Z,-1.06
2017-02-06T15:24:46.949Z,-1.14
2017-02-06T15:25:57.622Z,-1.17
2017-02-06T15:27:07.908Z,-1.21
2017-02-06T15:28:18.580Z,-1.22
2017-02-06T15:29:28.885Z,-1.29
2017-02-06T15:30:39.551Z,-1.3
2017-02-06T15:31:50.223Z,-1.27
2017-02-06T15:33:00.497Z,-1.35
2017-02-06T15:34:09.987Z,-1.39
2017-02-06T15:35:20.260Z,-1.38
2017-02-06T15:36:30.933Z,-1.5
2017-02-06T15:37:41.600Z,-1.45
2017-02-06T15:38:52.274Z,-1.43
2017-02-06T15:40:02.149Z,-1.39
2017-02-06T15:41:12.825Z,-1.4